Time;durP1;ratioP1;P1;durP2;ratioP2;P2;SDS_P1;SDS_P2;PMS_P1;PMS_P2;Temp;Humidity;BMP_temperature;BMP_pressure;BME280_temperature;BME280_humidity;BME280_pressure;Samples;Min_cycle;Max_cycle;Signal;HPM_P1;HPM_P2
2022/07/17 00:01:49;;;;;;;7.37;6.03;;;13.00;99.90;;;;;;5072431;28;20656;-76
2022/07/17 00:04:17;;;;;;;7.13;5.67;;;12.90;99.90;;;;;;5072338;28;20624;-76
2022/07/17 00:06:44;;;;;;;10.63;5.60;;;12.90;99.90;;;;;;5072206;28;20687;-76
2022/07/17 00:09:10;;;;;;;7.70;5.87;;;12.80;99.90;;;;;;5072312;28;20569;-77
2022/07/17 00:11:37;;;;;;;6.73;5.70;;;12.70;99.90;;;;;;5072394;28;20197;-77
2022/07/17 00:14:04;;;;;;;6.33;5.73;;;12.60;99.90;;;;;;5072510;28;20295;-76
2022/07/17 00:16:31;;;;;;;7.03;5.37;;;12.50;99.90;;;;;;5072382;28;20200;-76
2022/07/17 00:18:57;;;;;;;6.67;5.97;;;12.40;99.90;;;;;;5072270;28;20734;-76
2022/07/17 00:21:26;;;;;;;8.43;5.80;;;12.40;99.90;;;;;;5072233;28;20197;-76
2022/07/17 00:23:52;;;;;;;6.20;5.60;;;12.60;99.90;;;;;;5072573;28;20205;-76
2022/07/17 00:26:19;;;;;;;6.97;5.77;;;12.70;99.90;;;;;;5072418;28;20225;-76
2022/07/17 00:28:46;;;;;;;6.10;5.57;;;12.60;99.90;;;;;;5072197;28;20262;-77
2022/07/17 00:31:12;;;;;;;8.57;6.03;;;12.50;99.90;;;;;;5072144;28;20205;-77
2022/07/17 00:33:39;;;;;;;6.73;5.93;;;12.50;99.90;;;;;;5072075;28;20713;-76
2022/07/17 00:36:06;;;;;;;7.87;6.50;;;12.40;99.90;;;;;;5072070;28;20197;-77
2022/07/17 00:38:34;;;;;;;7.47;6.17;;;12.40;99.90;;;;;;5072066;28;20282;-74
2022/07/17 00:41:01;;;;;;;11.10;6.43;;;12.20;99.90;;;;;;5072158;28;20207;-77
2022/07/17 00:43:28;;;;;;;7.33;6.43;;;12.10;99.90;;;;;;5072127;28;20205;-76
2022/07/17 00:45:57;;;;;;;6.73;6.13;;;12.00;99.90;;;;;;5072012;28;20224;-77
2022/07/17 00:48:23;;;;;;;7.30;6.13;;;12.00;99.90;;;;;;5072411;28;20560;-77
2022/07/17 00:50:50;;;;;;;6.47;5.80;;;12.00;99.90;;;;;;5075514;28;20193;-76
2022/07/17 00:53:17;;;;;;;7.77;6.30;;;11.90;99.90;;;;;;5075396;28;20247;-76
2022/07/17 00:55:47;;;;;;;6.60;6.00;;;12.00;99.90;;;;;;5075584;28;20212;-77
2022/07/17 00:58:19;;;;;;;6.80;6.20;;;11.90;99.90;;;;;;5075493;28;20292;-74
2022/07/17 01:00:46;;;;;;;7.33;6.63;;;11.90;99.90;;;;;;5075605;28;20197;-74
2022/07/17 01:03:12;;;;;;;8.70;6.43;;;11.80;99.90;;;;;;5075337;28;20201;-76
2022/07/17 01:05:39;;;;;;;8.03;6.93;;;11.70;99.90;;;;;;5075483;28;20192;-74
2022/07/17 01:08:06;;;;;;;11.93;6.57;;;11.60;99.90;;;;;;5075168;28;20656;-74
2022/07/17 01:10:33;;;;;;;7.40;6.80;;;11.60;99.90;;;;;;5075366;28;20201;-75
2022/07/17 01:13:02;;;;;;;7.53;5.90;;;11.50;99.90;;;;;;5075098;28;20671;-75
2022/07/17 01:15:29;;;;;;;6.83;6.20;;;11.60;99.90;;;;;;5075180;28;20254;-74
2022/07/17 01:17:56;;;;;;;6.53;5.80;;;11.60;99.90;;;;;;5074954;28;20207;-77
2022/07/17 01:20:23;;;;;;;6.70;6.10;;;11.50;99.90;;;;;;5091116;28;20200;-76
2022/07/17 01:22:52;;;;;;;7.73;5.90;;;11.60;99.90;;;;;;5095378;28;20284;-77
2022/07/17 01:25:21;;;;;;;6.80;6.10;;;11.70;99.90;;;;;;5095320;28;20250;-77
2022/07/17 01:27:47;;;;;;;7.00;6.17;;;11.80;99.90;;;;;;5095068;28;20280;-74
2022/07/17 01:30:14;;;;;;;7.10;5.77;;;11.80;99.90;;;;;;5094979;28;20609;-76
2022/07/17 01:32:42;;;;;;;6.53;5.93;;;11.60;99.90;;;;;;5095271;28;20196;-76
2022/07/17 01:35:11;;;;;;;6.57;5.87;;;11.50;99.90;;;;;;5095118;28;20197;-76
2022/07/17 01:37:40;;;;;;;6.57;5.97;;;11.50;99.90;;;;;;5095056;28;20196;-76
2022/07/17 01:40:12;;;;;;;5.97;5.40;;;11.70;99.90;;;;;;5094688;28;20572;-77
2022/07/17 01:42:43;;;;;;;6.20;5.70;;;11.60;99.90;;;;;;5094975;28;20291;-76
2022/07/17 01:45:10;;;;;;;6.23;5.63;;;11.50;99.90;;;;;;5095135;28;20270;-76
2022/07/17 01:47:37;;;;;;;7.40;5.60;;;11.40;99.90;;;;;;5094914;28;20223;-77
2022/07/17 01:50:06;;;;;;;8.87;6.00;;;11.40;99.90;;;;;;5094787;28;20200;-76
2022/07/17 01:52:37;;;;;;;7.03;5.17;;;11.30;99.90;;;;;;5094761;28;20196;-75
2022/07/17 01:55:05;;;;;;;9.10;6.13;;;11.30;99.90;;;;;;5094730;28;20308;-77
2022/07/17 01:57:33;;;;;;;6.53;5.97;;;11.10;99.90;;;;;;5094851;28;20336;-74
2022/07/17 02:00:00;;;;;;;7.30;6.57;;;11.00;99.90;;;;;;5094490;28;20712;-76
2022/07/17 02:02:26;;;;;;;6.67;5.90;;;10.90;99.90;;;;;;5094583;28;20204;-74
2022/07/17 02:04:53;;;;;;;7.53;6.83;;;10.80;99.90;;;;;;5094572;28;20204;-74
2022/07/17 02:07:20;;;;;;;7.00;6.40;;;10.90;99.90;;;;;;5094337;28;20224;-74
2022/07/17 02:09:46;;;;;;;6.83;6.23;;;11.10;99.90;;;;;;5094311;28;20204;-74
2022/07/17 02:12:13;;;;;;;6.37;5.77;;;11.20;99.90;;;;;;5094198;28;20532;-74
2022/07/17 02:14:41;;;;;;;9.03;6.70;;;11.30;99.90;;;;;;5094192;28;20582;-74
2022/07/17 02:17:08;;;;;;;7.43;6.60;;;11.30;99.90;;;;;;5094235;28;20196;-74
2022/07/17 02:19:34;;;;;;;6.83;6.13;;;11.20;99.90;;;;;;5094188;28;20207;-75
2022/07/17 02:22:01;;;;;;;6.50;5.97;;;11.00;99.90;;;;;;5094274;28;20235;-75
2022/07/17 02:24:28;;;;;;;7.00;6.30;;;10.90;99.90;;;;;;5093902;28;20200;-75
2022/07/17 02:26:54;;;;;;;6.87;5.97;;;11.00;99.90;;;;;;5093882;28;20621;-75
2022/07/17 02:29:21;;;;;;;10.13;5.93;;;11.20;99.90;;;;;;5094129;28;20257;-76
2022/07/17 02:31:50;;;;;;;7.17;6.20;;;11.00;99.90;;;;;;5093913;28;20671;-76
2022/07/17 02:34:16;;;;;;;7.03;6.33;;;11.20;99.90;;;;;;5093879;28;20199;-78
2022/07/17 02:36:43;;;;;;;7.27;6.33;;;11.30;99.90;;;;;;5093791;28;20705;-75
2022/07/17 02:39:09;;;;;;;8.23;6.10;;;11.20;99.90;;;;;;5093542;28;20232;-76
2022/07/17 02:41:36;;;;;;;10.30;6.70;;;11.20;99.90;;;;;;5093702;28;20201;-76
2022/07/17 02:44:03;;;;;;;8.23;6.67;;;11.20;99.90;;;;;;5093950;28;20242;-76
2022/07/17 02:46:30;;;;;;;7.73;6.10;;;11.20;99.90;;;;;;5093767;28;20277;-76
2022/07/17 02:48:58;;;;;;;14.10;6.10;;;11.00;99.90;;;;;;5093753;28;20199;-76
2022/07/17 02:51:24;;;;;;;7.40;6.17;;;10.80;99.90;;;;;;5093431;28;20597;-76
2022/07/17 02:53:51;;;;;;;6.93;6.10;;;10.60;99.90;;;;;;5093777;28;20253;-76
2022/07/17 02:56:17;;;;;;;7.20;6.23;;;10.60;99.90;;;;;;5093663;28;20200;-76
2022/07/17 02:58:44;;;;;;;8.63;5.63;;;10.70;99.90;;;;;;5093599;28;20261;-76
2022/07/17 03:01:11;;;;;;;6.10;5.60;;;10.50;99.90;;;;;;5093685;28;20257;-75
2022/07/17 03:03:37;;;;;;;7.17;6.47;;;10.50;99.90;;;;;;5093473;28;20200;-75
2022/07/17 03:06:05;;;;;;;7.47;6.37;;;10.40;99.90;;;;;;5093318;28;20200;-75
2022/07/17 03:08:32;;;;;;;7.07;6.37;;;10.60;99.90;;;;;;5093492;28;20313;-74
2022/07/17 03:10:59;;;;;;;8.07;6.27;;;10.70;99.90;;;;;;5092815;28;20720;-76
2022/07/17 03:13:25;;;;;;;7.33;6.57;;;10.70;99.90;;;;;;5093200;28;20204;-75
2022/07/17 03:15:52;;;;;;;9.87;7.23;;;10.40;99.90;;;;;;5093324;28;20598;-75
2022/07/17 03:18:19;;;;;;;7.67;6.90;;;10.40;99.90;;;;;;5093188;28;20193;-75
2022/07/17 03:20:45;;;;;;;7.73;6.93;;;10.30;99.90;;;;;;5093033;28;20253;-75
2022/07/17 03:23:13;;;;;;;10.43;6.23;;;10.20;99.90;;;;;;5093311;28;20258;-75
2022/07/17 03:25:40;;;;;;;7.50;6.80;;;10.10;99.90;;;;;;5093091;28;20246;-74
2022/07/17 03:28:07;;;;;;;7.03;6.33;;;10.10;99.90;;;;;;5093089;28;20258;-74
2022/07/17 03:30:34;;;;;;;8.27;6.60;;;10.00;99.90;;;;;;5093042;28;20204;-74
2022/07/17 03:33:00;;;;;;;9.07;6.83;;;10.00;99.90;;;;;;5092890;28;20196;-74
2022/07/17 03:35:27;;;;;;;7.10;6.33;;;9.90;99.90;;;;;;5092794;28;20277;-74
2022/07/17 03:37:53;;;;;;;8.27;6.60;;;10.00;99.90;;;;;;5093033;28;20253;-75
2022/07/17 03:40:21;;;;;;;8.10;6.43;;;10.00;99.90;;;;;;5092788;28;20228;-75
2022/07/17 03:42:48;;;;;;;7.10;6.40;;;9.90;99.90;;;;;;5092961;28;20200;-76
2022/07/17 03:45:15;;;;;;;6.97;6.37;;;9.90;99.90;;;;;;5092951;28;20764;-76
2022/07/17 03:47:42;;;;;;;7.63;6.07;;;9.90;99.90;;;;;;5093041;28;20231;-76
2022/07/17 03:50:09;;;;;;;7.20;6.13;;;9.90;99.90;;;;;;5092731;28;20192;-77
2022/07/17 03:52:35;;;;;;;7.10;6.03;;;9.90;99.90;;;;;;5092869;28;20204;-76
2022/07/17 03:55:02;;;;;;;8.47;5.93;;;9.80;99.90;;;;;;5092756;28;20597;-76
2022/07/17 03:57:30;;;;;;;5.60;5.03;;;9.90;99.90;;;;;;5092715;28;20643;-76
2022/07/17 03:59:57;;;;;;;7.80;5.87;;;9.90;99.90;;;;;;5092747;28;20593;-75
2022/07/17 04:02:24;;;;;;;6.63;5.83;;;9.80;99.90;;;;;;5092582;28;20193;-76
2022/07/17 04:04:50;;;;;;;6.13;5.00;;;9.90;99.90;;;;;;5092874;28;20200;-76
2022/07/17 04:07:27;;;;;;;6.80;5.50;;;9.90;99.90;;;;;;5092637;28;20220;-76
2022/07/17 04:09:58;;;;;;;5.57;5.07;;;10.00;99.90;;;;;;5092746;28;20242;-76
2022/07/17 04:12:25;;;;;;;7.83;5.00;;;10.30;99.90;;;;;;5092560;28;20204;-76
2022/07/17 04:14:53;;;;;;;9.83;5.03;;;10.40;99.90;;;;;;5092490;28;20196;-75
2022/07/17 04:17:20;;;;;;;7.03;5.40;;;10.60;99.90;;;;;;5092624;28;20249;-76
2022/07/17 04:19:47;;;;;;;6.53;5.43;;;10.70;99.90;;;;;;5072434;28;20193;-76
2022/07/17 04:22:13;;;;;;;5.90;5.30;;;10.80;99.90;;;;;;5072354;28;20232;-76
2022/07/17 04:24:40;;;;;;;6.23;5.00;;;10.80;99.90;;;;;;5074831;28;20197;-76
2022/07/17 04:27:07;;;;;;;6.07;5.27;;;10.90;99.90;;;;;;5075956;28;20216;-76
2022/07/17 04:29:34;;;;;;;6.53;4.70;;;10.80;99.90;;;;;;5075913;28;20251;-75
2022/07/17 04:32:02;;;;;;;8.90;5.70;;;10.80;99.90;;;;;;5076151;28;20579;-75
2022/07/17 04:34:29;;;;;;;5.80;5.20;;;10.80;99.90;;;;;;5076014;28;20242;-76
2022/07/17 04:36:56;;;;;;;7.10;5.40;;;10.90;99.90;;;;;;5075888;28;20197;-76
2022/07/17 04:39:23;;;;;;;5.97;5.37;;;10.80;99.90;;;;;;5075659;28;20221;-76
2022/07/17 04:41:50;;;;;;;5.63;5.03;;;10.90;99.90;;;;;;5075722;28;20615;-76
2022/07/17 04:44:16;;;;;;;5.13;4.57;;;10.90;99.90;;;;;;5075766;28;20656;-76
2022/07/17 04:46:43;;;;;;;7.63;5.00;;;11.00;99.90;;;;;;5075774;28;20205;-76
2022/07/17 04:49:11;;;;;;;5.63;4.50;;;11.20;99.90;;;;;;5075753;28;20221;-76
2022/07/17 04:51:38;;;;;;;5.13;4.43;;;11.30;99.90;;;;;;5075526;28;20201;-76
2022/07/17 04:54:05;;;;;;;6.90;4.13;;;11.40;99.90;;;;;;5075563;28;20193;-76
2022/07/17 04:56:31;;;;;;;5.10;4.60;;;11.50;99.90;;;;;;5075554;28;20208;-76
2022/07/17 04:58:58;;;;;;;4.87;4.43;;;11.50;99.90;;;;;;5075479;28;20648;-76
2022/07/17 05:01:25;;;;;;;8.63;4.50;;;11.70;99.90;;;;;;5075645;28;20274;-76
2022/07/17 05:03:51;;;;;;;7.30;4.33;;;11.90;99.90;;;;;;5075663;28;20201;-76
2022/07/17 05:06:19;;;;;;;5.03;4.40;;;12.00;99.90;;;;;;5075381;28;20296;-76
2022/07/17 05:08:46;;;;;;;5.03;4.23;;;12.10;99.90;;;;;;5075184;28;20761;-75
2022/07/17 05:11:13;;;;;;;4.30;3.90;;;12.20;99.90;;;;;;5075197;28;20201;-76
2022/07/17 05:13:39;;;;;;;6.80;4.37;;;12.20;99.90;;;;;;5080683;28;20243;-76
2022/07/17 05:16:06;;;;;;;4.73;3.83;;;12.30;99.90;;;;;;5075368;28;20250;-76
2022/07/17 05:18:33;;;;;;;5.43;4.10;;;12.40;99.90;;;;;;5075183;28;20197;-76
2022/07/17 05:20:59;;;;;;;5.43;3.90;;;12.50;99.90;;;;;;5075143;28;20209;-77
2022/07/17 05:23:27;;;;;;;5.73;4.10;;;12.60;99.90;;;;;;5074887;28;20664;-76
2022/07/17 05:25:54;;;;;;;5.87;4.20;;;12.70;99.90;;;;;;5075392;28;20251;-75
2022/07/17 05:28:21;;;;;;;6.27;4.13;;;12.90;99.90;;;;;;5075157;28;20224;-76
2022/07/17 05:30:47;;;;;;;4.43;3.87;;;13.00;99.90;;;;;;5075135;28;20258;-76
2022/07/17 05:33:14;;;;;;;4.30;3.67;;;13.20;99.90;;;;;;5075123;28;20207;-76
2022/07/17 05:35:40;;;;;;;5.50;4.20;;;13.30;99.90;;;;;;5074557;28;20656;-76
2022/07/17 05:38:07;;;;;;;6.23;4.03;;;13.40;99.90;;;;;;5074964;28;20251;-76
2022/07/17 05:40:35;;;;;;;4.20;3.80;;;13.60;99.90;;;;;;5074927;28;20200;-76
2022/07/17 05:43:02;;;;;;;3.70;3.40;;;13.60;99.90;;;;;;5075065;28;20246;-76
2022/07/17 05:45:28;;;;;;;5.27;3.70;;;13.70;99.90;;;;;;5074903;28;20289;-76
2022/07/17 05:47:55;;;;;;;6.00;3.63;;;13.80;99.90;;;;;;5074629;28;20749;-76
2022/07/17 05:50:22;;;;;;;4.97;3.80;;;13.90;99.90;;;;;;5074800;28;20248;-76
2022/07/17 05:52:48;;;;;;;4.47;3.50;;;14.10;99.90;;;;;;5074560;28;20246;-76
2022/07/17 05:55:15;;;;;;;4.20;3.87;;;14.20;99.90;;;;;;5074862;28;20258;-76
2022/07/17 05:57:43;;;;;;;4.30;3.50;;;14.30;99.90;;;;;;5074725;28;20254;-76
2022/07/17 06:00:11;;;;;;;4.00;3.60;;;14.50;99.90;;;;;;5074686;28;20201;-76
2022/07/17 06:02:38;;;;;;;5.50;3.87;;;14.60;99.90;;;;;;5074518;28;20197;-76
2022/07/17 06:05:05;;;;;;;6.80;4.00;;;14.70;99.90;;;;;;5074464;28;20193;-76
2022/07/17 06:07:32;;;;;;;5.03;3.67;;;14.90;99.90;;;;;;5074367;28;20205;-76
2022/07/17 06:09:59;;;;;;;8.03;5.70;;;15.10;99.90;;;;;;5074539;28;20266;-76
2022/07/17 06:12:26;;;;;;;4.47;3.27;;;15.20;99.90;;;;;;5074678;28;20197;-76
2022/07/17 06:14:53;;;;;;;4.50;3.47;;;15.30;99.90;;;;;;5074309;28;20193;-76
2022/07/17 06:17:20;;;;;;;4.93;3.00;;;15.40;99.90;;;;;;5074161;28;20201;-76
2022/07/17 06:19:47;;;;;;;5.20;2.80;;;15.60;99.90;;;;;;5074885;28;20660;-76
2022/07/17 06:22:13;;;;;;;4.47;2.30;;;15.70;99.90;;;;;;5073886;28;20722;-76
2022/07/17 06:24:40;;;;;;;4.63;2.65;;;15.90;99.90;;;;;;5074172;28;20201;-76
2022/07/17 06:27:07;;;;;;;3.22;2.05;;;16.10;99.90;;;;;;5073986;28;20201;-76
2022/07/17 06:29:33;;;;;;;3.13;2.13;;;16.30;99.90;;;;;;5073812;28;20622;-76
2022/07/17 06:32:01;;;;;;;4.97;2.20;;;16.40;99.90;;;;;;5073871;28;20205;-76
2022/07/17 06:34:28;;;;;;;3.72;2.15;;;16.60;99.90;;;;;;5073729;28;20610;-77
2022/07/17 06:36:54;;;;;;;3.25;2.03;;;16.70;99.90;;;;;;5074018;28;20204;-76
2022/07/17 06:39:21;;;;;;;2.63;2.13;;;16.80;99.90;;;;;;5073591;28;20224;-76
2022/07/17 06:41:48;;;;;;;4.47;2.30;;;16.90;99.90;;;;;;5073775;28;20200;-76
2022/07/17 06:44:14;;;;;;;2.88;2.35;;;17.00;99.90;;;;;;5073740;28;20201;-76
2022/07/17 06:46:41;;;;;;;3.28;2.20;;;17.10;99.90;;;;;;5072886;28;20200;-76
2022/07/17 06:49:09;;;;;;;3.30;2.15;;;17.20;99.90;;;;;;5073354;28;20228;-76
2022/07/17 06:51:36;;;;;;;2.70;2.10;;;17.30;99.90;;;;;;5073601;28;20201;-76
2022/07/17 06:54:03;;;;;;;3.03;2.20;;;17.40;99.90;;;;;;5073740;28;20207;-76
2022/07/17 06:56:30;;;;;;;5.75;2.40;;;17.60;99.90;;;;;;5073308;28;20250;-76
2022/07/17 06:58:56;;;;;;;5.15;2.47;;;17.60;99.90;;;;;;5073687;28;20204;-75
2022/07/17 07:01:23;;;;;;;4.20;2.40;;;17.70;99.90;;;;;;5073262;28;20198;-77
2022/07/17 07:03:50;;;;;;;5.57;2.28;;;17.80;99.90;;;;;;5073474;28;20204;-77
2022/07/17 07:06:18;;;;;;;4.55;2.17;;;17.90;99.90;;;;;;5073330;28;20262;-77
2022/07/17 07:08:44;;;;;;;3.08;2.35;;;18.10;99.90;;;;;;5073295;28;20224;-75
2022/07/17 07:11:11;;;;;;;5.13;2.25;;;18.00;99.90;;;;;;5073269;28;20197;-76
2022/07/17 07:13:38;;;;;;;4.55;2.50;;;18.20;99.90;;;;;;5073222;28;20292;-75
2022/07/17 07:16:05;;;;;;;2.92;2.40;;;18.20;99.60;;;;;;5073126;28;20197;-75
2022/07/17 07:18:31;;;;;;;2.83;2.47;;;18.30;99.60;;;;;;5073214;28;20201;-76
2022/07/17 07:20:58;;;;;;;2.58;2.38;;;18.40;99.20;;;;;;5073217;28;20197;-75
2022/07/17 07:23:26;;;;;;;4.97;2.88;;;18.50;98.70;;;;;;5073132;28;20227;-76
2022/07/17 07:25:53;;;;;;;3.58;2.33;;;18.60;98.10;;;;;;5072485;28;20227;-76
2022/07/17 07:28:19;;;;;;;3.22;2.75;;;18.60;97.60;;;;;;5075665;28;20258;-77
2022/07/17 07:30:46;;;;;;;4.10;2.38;;;18.60;98.30;;;;;;5087860;28;20292;-75
2022/07/17 07:33:13;;;;;;;3.50;2.17;;;18.70;98.10;;;;;;5092399;28;20207;-75
2022/07/17 07:35:40;;;;;;;3.63;2.30;;;18.80;98.20;;;;;;5092642;28;20204;-77
2022/07/17 07:38:06;;;;;;;3.85;2.45;;;19.00;97.40;;;;;;5087275;28;20564;-76
2022/07/17 07:40:35;;;;;;;4.82;2.50;;;19.10;96.90;;;;;;5072172;28;20201;-75
2022/07/17 07:43:01;;;;;;;5.32;2.55;;;19.30;95.80;;;;;;5072872;28;20201;-77
2022/07/17 07:45:28;;;;;;;5.88;2.28;;;19.40;94.60;;;;;;5072551;28;20197;-75
2022/07/17 07:47:55;;;;;;;2.80;2.50;;;19.50;94.50;;;;;;5077866;28;20185;-74
2022/07/17 07:50:23;;;;;;;2.97;2.17;;;19.70;94.90;;;;;;5072513;28;20656;-75
2022/07/17 07:52:50;;;;;;;3.30;2.30;;;19.80;92.80;;;;;;5070847;28;20254;-74
2022/07/17 07:55:17;;;;;;;3.30;2.40;;;20.00;91.80;;;;;;5072569;28;20197;-75
2022/07/17 07:57:45;;;;;;;3.78;2.60;;;20.20;91.30;;;;;;5077032;28;20243;-75
2022/07/17 08:00:13;;;;;;;4.10;2.40;;;20.40;90.20;;;;;;5076789;28;20252;-74
2022/07/17 08:02:40;;;;;;;5.70;2.80;;;20.60;89.30;;;;;;5075338;28;20687;-75
2022/07/17 08:05:07;;;;;;;4.03;2.50;;;20.80;86.20;;;;;;5076256;28;20463;-75
2022/07/17 08:07:36;;;;;;;3.42;2.60;;;21.00;84.90;;;;;;5076118;28;20250;-75
2022/07/17 08:10:04;;;;;;;3.75;2.20;;;21.20;81.40;;;;;;5076541;28;20353;-74
2022/07/17 08:12:31;;;;;;;4.28;2.30;;;21.30;80.40;;;;;;5076107;28;20534;-74
2022/07/17 08:14:59;;;;;;;4.68;2.42;;;21.50;76.40;;;;;;5079701;28;20238;-75
2022/07/17 08:17:25;;;;;;;3.65;2.22;;;21.60;74.20;;;;;;5085086;28;20253;-74
2022/07/17 08:19:52;;;;;;;2.75;2.20;;;21.80;73.80;;;;;;5080605;28;20251;-76
2022/07/17 08:22:19;;;;;;;3.72;2.30;;;21.90;70.10;;;;;;5076617;28;20672;-75
2022/07/17 08:24:45;;;;;;;3.35;1.90;;;21.90;69.60;;;;;;5077733;28;20189;-75
2022/07/17 08:27:12;;;;;;;4.25;2.90;;;22.20;67.40;;;;;;5079950;28;20254;-75
2022/07/17 08:29:38;;;;;;;3.22;2.10;;;22.40;65.90;;;;;;5076600;28;20236;-74
2022/07/17 08:32:07;;;;;;;4.63;2.10;;;22.60;61.30;;;;;;5076823;28;20200;-74
2022/07/17 08:34:33;;;;;;;2.45;1.95;;;22.70;59.10;;;;;;5075744;28;20262;-74
2022/07/17 08:37:00;;;;;;;3.90;2.05;;;22.60;57.70;;;;;;5075840;28;20193;-74
2022/07/17 08:39:27;;;;;;;3.30;1.90;;;22.70;58.30;;;;;;5075621;28;20319;-75
2022/07/17 08:41:54;;;;;;;3.42;1.80;;;22.90;54.20;;;;;;5081189;28;20192;-75
2022/07/17 08:44:21;;;;;;;2.63;2.13;;;23.10;54.20;;;;;;5089216;28;20223;-76
2022/07/17 08:46:48;;;;;;;2.80;1.73;;;23.20;51.60;;;;;;5075736;28;20201;-75
2022/07/17 08:49:21;;;;;;;2.22;1.90;;;23.20;48.60;;;;;;5075759;28;20630;-75
2022/07/17 08:51:49;;;;;;;2.38;1.88;;;23.30;48.90;;;;;;5075744;28;20292;-75
2022/07/17 08:54:16;;;;;;;1.90;1.67;;;23.40;48.30;;;;;;5080318;28;20238;-77
2022/07/17 08:56:43;;;;;;;3.95;2.00;;;23.50;47.90;;;;;;5080136;28;20196;-75
2022/07/17 08:59:11;;;;;;;3.00;2.05;;;23.80;48.20;;;;;;5076798;28;20215;-75
2022/07/17 09:01:37;;;;;;;4.30;1.95;;;24.10;46.40;;;;;;5080285;28;20196;-76
2022/07/17 09:04:06;;;;;;;3.08;1.95;;;24.30;43.70;;;;;;5086597;28;20189;-75
2022/07/17 09:06:35;;;;;;;4.20;1.95;;;24.10;42.20;;;;;;5082198;28;20197;-76
2022/07/17 09:09:04;;;;;;;4.30;1.90;;;24.00;41.60;;;;;;5078233;28;20236;-76
2022/07/17 09:11:30;;;;;;;2.67;1.90;;;24.10;42.10;;;;;;5091189;28;20196;-74
2022/07/17 09:13:57;;;;;;;3.03;1.70;;;24.50;41.50;;;;;;5082636;28;20192;-75
2022/07/17 09:16:24;;;;;;;2.50;2.00;;;24.30;40.40;;;;;;5083579;28;20193;-75
2022/07/17 09:18:53;;;;;;;3.80;1.92;;;24.60;40.80;;;;;;5090148;28;20196;-76
2022/07/17 09:21:21;;;;;;;4.57;1.85;;;25.00;39.10;;;;;;5078356;28;20193;-75
2022/07/17 09:24:00;;;;;;;3.67;2.03;;;25.20;38.50;;;;;;5094864;28;20200;-75
2022/07/17 09:26:27;;;;;;;4.07;2.33;;;25.10;37.80;;;;;;5095447;28;20200;-76
2022/07/17 09:28:53;;;;;;;4.75;2.40;;;25.50;37.00;;;;;;5095058;28;20213;-76
2022/07/17 09:31:26;;;;;;;3.55;1.90;;;25.90;35.90;;;;;;5092763;28;20262;-76
2022/07/17 09:33:52;;;;;;;3.40;1.92;;;25.40;34.90;;;;;;5092962;28;20228;-75
2022/07/17 09:36:19;;;;;;;2.45;1.98;;;25.80;35.30;;;;;;5092769;28;20234;-75
2022/07/17 09:38:46;;;;;;;4.45;1.95;;;26.10;34.50;;;;;;5092641;28;20232;-76
2022/07/17 09:41:16;;;;;;;2.38;1.85;;;26.00;33.40;;;;;;5092868;28;20204;-74
2022/07/17 09:43:46;;;;;;;5.10;1.90;;;25.80;33.00;;;;;;5092340;28;20196;-74
2022/07/17 09:46:16;;;;;;;1.80;1.70;;;25.70;32.50;;;;;;5092384;28;20249;-74
2022/07/17 09:48:47;;;;;;;2.80;2.08;;;25.50;32.00;;;;;;5092500;28;20203;-74
2022/07/17 09:51:18;;;;;;;2.92;1.92;;;25.50;31.60;;;;;;5092483;28;20200;-75
2022/07/17 09:53:47;;;;;;;3.83;2.20;;;25.50;31.50;;;;;;5092594;28;20227;-75
2022/07/17 09:56:17;;;;;;;2.33;2.00;;;25.50;31.10;;;;;;5092077;28;20299;-75
2022/07/17 09:58:48;;;;;;;2.03;1.83;;;26.10;31.30;;;;;;5092349;28;20205;-76
2022/07/17 10:01:15;;;;;;;4.25;1.77;;;26.20;30.20;;;;;;5080610;28;20659;-76
2022/07/17 10:03:42;;;;;;;2.00;1.70;;;26.50;30.40;;;;;;5074776;28;20277;-78
2022/07/17 10:06:10;;;;;;;3.97;1.98;;;26.70;30.00;;;;;;5073334;28;20201;-78
2022/07/17 10:08:38;;;;;;;2.63;2.00;;;26.80;30.00;;;;;;5074044;28;20279;-78
2022/07/17 10:11:05;;;;;;;3.50;2.22;;;27.20;28.50;;;;;;5074106;28;20254;-78
2022/07/17 10:13:33;;;;;;;2.47;1.60;;;27.50;28.90;;;;;;5074573;28;20201;-77
2022/07/17 10:16:00;;;;;;;3.58;2.00;;;27.80;27.90;;;;;;5074408;28;20194;-79
2022/07/17 10:18:36;;;;;;;6.53;1.75;;;28.10;27.70;;;;;;5074496;28;20680;-78
2022/07/17 10:21:14;;;;;;;2.33;1.67;;;28.60;27.20;;;;;;5073124;28;20200;-78
2022/07/17 10:23:42;;;;;;;4.22;1.80;;;28.00;25.60;;;;;;5073980;28;20197;-80
2022/07/17 10:26:08;;;;;;;2.05;1.70;;;27.90;25.60;;;;;;5074150;28;20201;-78
2022/07/17 10:28:54;;;;;;;2.08;1.40;;;28.10;26.10;;;;;;5074325;28;20201;-78
2022/07/17 10:31:25;;;;;;;1.95;1.70;;;28.10;25.20;;;;;;5073885;28;20235;-79
2022/07/17 10:33:59;;;;;;;2.03;1.58;;;28.00;24.30;;;;;;5073710;28;20196;-78
2022/07/17 10:36:36;;;;;;;3.17;1.75;;;27.90;25.30;;;;;;5074040;28;20262;-78
2022/07/17 10:39:14;;;;;;;2.75;1.85;;;27.40;24.80;;;;;;5073787;28;20240;-78
2022/07/17 10:41:41;;;;;;;2.47;1.60;;;27.60;25.00;;;;;;5073840;28;20200;-78
2022/07/17 10:44:09;;;;;;;2.85;1.70;;;27.70;24.90;;;;;;5073723;28;20201;-79
2022/07/17 10:46:36;;;;;;;2.05;1.60;;;28.00;24.40;;;;;;5073572;28;20197;-79
2022/07/17 10:49:04;;;;;;;2.33;1.60;;;28.30;24.50;;;;;;5073708;28;20255;-79
2022/07/17 10:51:30;;;;;;;2.47;2.00;;;29.70;24.60;;;;;;5073721;28;20250;-79
2022/07/17 10:53:58;;;;;;;2.00;1.80;;;31.00;23.20;;;;;;5073597;28;20205;-79
2022/07/17 10:56:25;;;;;;;2.15;1.52;;;32.20;21.90;;;;;;5073528;28;20741;-77
2022/07/17 10:58:53;;;;;;;3.03;1.73;;;32.90;20.70;;;;;;5073767;28;20203;-77
2022/07/17 11:01:22;;;;;;;3.50;1.70;;;32.90;19.70;;;;;;5073332;28;20196;-79
2022/07/17 11:03:50;;;;;;;1.58;1.48;;;31.40;19.70;;;;;;5075229;28;20197;-78
2022/07/17 11:06:20;;;;;;;2.05;1.50;;;31.10;20.30;;;;;;5073320;28;20197;-78
2022/07/17 11:08:49;;;;;;;2.15;1.75;;;32.10;20.30;;;;;;5073268;28;20587;-78
2022/07/17 11:11:20;;;;;;;2.17;1.83;;;33.50;19.20;;;;;;5073335;28;20247;-78
2022/07/17 11:13:47;;;;;;;2.75;2.13;;;34.20;17.60;;;;;;5072415;28;20200;-80
2022/07/17 11:16:26;;;;;;;1.67;1.50;;;34.90;17.50;;;;;;5078065;28;20192;-79
2022/07/17 11:18:53;;;;;;;1.75;1.60;;;34.90;15.80;;;;;;5093443;28;20268;-80
2022/07/17 11:21:19;;;;;;;2.10;1.50;;;35.10;15.30;;;;;;5093307;28;20249;-79
2022/07/17 11:23:52;;;;;;;3.20;1.70;;;35.40;15.50;;;;;;5075506;28;20241;-79
2022/07/17 11:26:19;;;;;;;3.72;1.63;;;36.00;14.30;;;;;;5079162;28;20204;-85
2022/07/17 11:28:48;;;;;;;4.05;1.70;;;35.00;14.10;;;;;;5080078;28;20196;-81
2022/07/17 11:31:20;;;;;;;1.85;1.55;;;34.00;13.60;;;;;;5078650;28;20405;-81
2022/07/17 11:33:53;;;;;;;2.72;1.60;;;34.10;14.50;;;;;;5078692;28;20242;-81
2022/07/17 11:36:22;;;;;;;1.52;1.40;;;35.60;14.10;;;;;;5079011;28;20291;-82
2022/07/17 11:38:48;;;;;;;1.90;1.67;;;36.80;13.00;;;;;;5079023;28;20323;-81
2022/07/17 11:41:17;;;;;;;2.00;1.70;;;35.20;13.10;;;;;;5079972;28;20255;-81
2022/07/17 11:43:43;;;;;;;3.75;1.90;;;32.90;14.10;;;;;;5080709;28;20231;-83
2022/07/17 11:46:10;;;;;;;1.88;1.50;;;33.60;14.60;;;;;;5079092;28;20192;-81
2022/07/17 11:48:37;;;;;;;2.85;1.88;;;35.30;14.00;;;;;;5079554;28;20230;-81
2022/07/17 11:51:05;;;;;;;3.92;1.77;;;36.60;12.70;;;;;;5079907;28;20227;-82
2022/07/17 11:53:33;;;;;;;1.98;1.67;;;36.50;11.90;;;;;;5079126;28;20200;-82
2022/07/17 11:56:00;;;;;;;2.15;1.70;;;37.80;12.10;;;;;;5079586;28;20199;-81
2022/07/17 11:58:27;;;;;;;2.20;1.70;;;38.10;10.90;;;;;;5080494;28;20200;-82
2022/07/17 12:01:04;;;;;;;4.35;1.80;;;37.60;10.90;;;;;;5080444;28;20200;-82
2022/07/17 12:03:31;;;;;;;1.95;1.70;;;37.30;11.20;;;;;;5079657;28;20556;-82
2022/07/17 12:05:58;;;;;;;3.90;1.70;;;38.00;10.30;;;;;;5077559;28;20257;-82
2022/07/17 12:08:26;;;;;;;2.42;1.60;;;38.50;10.90;;;;;;5073300;28;20192;-82
2022/07/17 12:11:08;;;;;;;2.47;1.63;;;39.00;10.10;;;;;;5073041;28;20231;-82
2022/07/17 12:13:43;;;;;;;1.95;1.55;;;38.70;9.50;;;;;;5073375;28;20230;-81
2022/07/17 12:16:24;;;;;;;3.35;1.50;;;37.50;10.10;;;;;;5073053;28;20290;-81
2022/07/17 12:19:04;;;;;;;3.35;2.05;;;38.10;9.90;;;;;;5073689;28;20196;-81
2022/07/17 12:21:32;;;;;;;2.13;1.75;;;38.50;9.80;;;;;;5072883;28;20210;-82
2022/07/17 12:24:03;;;;;;;2.80;1.70;;;39.70;9.10;;;;;;5073213;28;20192;-81
2022/07/17 12:26:31;;;;;;;3.15;1.50;;;39.10;8.90;;;;;;5072595;28;20201;-81
2022/07/17 12:28:57;;;;;;;4.32;1.60;;;38.50;8.90;;;;;;5073210;28;20197;-82
2022/07/17 12:31:24;;;;;;;5.07;1.80;;;38.70;9.00;;;;;;5072698;28;20319;-82
2022/07/17 12:33:52;;;;;;;2.58;1.70;;;38.80;9.30;;;;;;5072940;28;20244;-80
2022/07/17 12:36:20;;;;;;;2.85;1.80;;;38.70;8.90;;;;;;5072466;28;20247;-81
2022/07/17 12:38:47;;;;;;;2.40;1.60;;;39.20;9.00;;;;;;5072268;28;20228;-80
2022/07/17 12:41:15;;;;;;;1.77;1.55;;;38.00;9.10;;;;;;5072235;28;20196;-81
2022/07/17 12:43:41;;;;;;;1.83;1.60;;;39.30;8.80;;;;;;5072341;28;20737;-82
2022/07/17 12:46:08;;;;;;;2.67;1.65;;;39.80;8.50;;;;;;5075808;28;20192;-81
2022/07/17 12:48:37;;;;;;;2.95;1.70;;;40.80;7.80;;;;;;5076075;28;20725;-81
2022/07/17 12:51:05;;;;;;;2.08;1.60;;;40.50;7.50;;;;;;5076101;28;20315;-81